sensor_id;sensor_type;location;lat;lon;timestamp;P1;durP1;ratioP1;P2;durP2;ratioP2
13421;SDS011;6782;55.904;13.396;2023-09-08T00:00:02;16.40;;;14.90;;
13421;SDS011;6782;55.904;13.396;2023-09-08T00:02:51;16.52;;;15.02;;
13421;SDS011;6782;55.904;13.396;2023-09-08T00:05:39;17.40;;;15.88;;
13421;SDS011;6782;55.904;13.396;2023-09-08T00:08:26;18.02;;;16.20;;
13421;SDS011;6782;55.904;13.396;2023-09-08T00:11:13;18.58;;;16.80;;
13421;SDS011;6782;55.904;13.396;2023-09-08T00:14:00;17.58;;;16.08;;
13421;SDS011;6782;55.904;13.396;2023-09-08T00:16:49;19.92;;;18.13;;
13421;SDS011;6782;55.904;13.396;2023-09-08T00:19:38;20.23;;;18.15;;
13421;SDS011;6782;55.904;13.396;2023-09-08T00:22:26;18.73;;;17.02;;
13421;SDS011;6782;55.904;13.396;2023-09-08T00:25:14;19.92;;;17.23;;
13421;SDS011;6782;55.904;13.396;2023-09-08T00:28:01;19.95;;;18.02;;
13421;SDS011;6782;55.904;13.396;2023-09-08T00:30:48;19.83;;;17.90;;
13421;SDS011;6782;55.904;13.396;2023-09-08T00:33:36;18.45;;;16.83;;
13421;SDS011;6782;55.904;13.396;2023-09-08T00:36:32;18.02;;;16.45;;
13421;SDS011;6782;55.904;13.396;2023-09-08T00:39:20;35.03;;;18.45;;
13421;SDS011;6782;55.904;13.396;2023-09-08T00:42:07;23.55;;;19.25;;
13421;SDS011;6782;55.904;13.396;2023-09-08T00:44:55;30.05;;;19.55;;
13421;SDS011;6782;55.904;13.396;2023-09-08T00:47:42;77.82;;;23.65;;
13421;SDS011;6782;55.904;13.396;2023-09-08T00:50:29;53.20;;;20.60;;
13421;SDS011;6782;55.904;13.396;2023-09-08T00:53:18;45.67;;;22.08;;
13421;SDS011;6782;55.904;13.396;2023-09-08T00:56:06;61.78;;;22.92;;
13421;SDS011;6782;55.904;13.396;2023-09-08T00:58:55;57.90;;;23.35;;
13421;SDS011;6782;55.904;13.396;2023-09-08T01:01:43;61.30;;;22.95;;
13421;SDS011;6782;55.904;13.396;2023-09-08T01:04:33;51.38;;;21.33;;
13421;SDS011;6782;55.904;13.396;2023-09-08T01:07:20;94.85;;;24.48;;
13421;SDS011;6782;55.904;13.396;2023-09-08T01:10:10;86.72;;;24.55;;
13421;SDS011;6782;55.904;13.396;2023-09-08T01:12:58;67.97;;;23.75;;
13421;SDS011;6782;55.904;13.396;2023-09-08T01:15:46;79.28;;;22.90;;
13421;SDS011;6782;55.904;13.396;2023-09-08T01:18:33;61.83;;;21.98;;
13421;SDS011;6782;55.904;13.396;2023-09-08T01:21:26;59.65;;;23.40;;
13421;SDS011;6782;55.904;13.396;2023-09-08T01:24:45;53.63;;;23.27;;
13421;SDS011;6782;55.904;13.396;2023-09-08T01:27:57;98.78;;;29.48;;
13421;SDS011;6782;55.904;13.396;2023-09-08T01:30:47;78.18;;;26.33;;
13421;SDS011;6782;55.904;13.396;2023-09-08T01:33:35;36.72;;;20.98;;
13421;SDS011;6782;55.904;13.396;2023-09-08T01:36:23;78.32;;;27.10;;
13421;SDS011;6782;55.904;13.396;2023-09-08T01:39:10;85.07;;;27.48;;
13421;SDS011;6782;55.904;13.396;2023-09-08T01:41:57;42.67;;;22.48;;
13421;SDS011;6782;55.904;13.396;2023-09-08T01:44:46;58.10;;;24.92;;
13421;SDS011;6782;55.904;13.396;2023-09-08T01:47:34;72.95;;;25.13;;
13421;SDS011;6782;55.904;13.396;2023-09-08T01:50:21;64.03;;;23.83;;
13421;SDS011;6782;55.904;13.396;2023-09-08T01:53:10;51.88;;;24.92;;
13421;SDS011;6782;55.904;13.396;2023-09-08T01:55:57;52.20;;;23.15;;
13421;SDS011;6782;55.904;13.396;2023-09-08T01:58:45;41.30;;;22.75;;
13421;SDS011;6782;55.904;13.396;2023-09-08T02:01:36;77.30;;;28.60;;
13421;SDS011;6782;55.904;13.396;2023-09-08T02:04:24;82.43;;;29.17;;
13421;SDS011;6782;55.904;13.396;2023-09-08T02:07:12;109.50;;;28.40;;
13421;SDS011;6782;55.904;13.396;2023-09-08T02:10:03;116.78;;;28.95;;
13421;SDS011;6782;55.904;13.396;2023-09-08T02:12:53;112.53;;;31.63;;
13421;SDS011;6782;55.904;13.396;2023-09-08T02:15:40;116.20;;;30.17;;
13421;SDS011;6782;55.904;13.396;2023-09-08T02:18:31;142.63;;;31.30;;
13421;SDS011;6782;55.904;13.396;2023-09-08T02:21:18;92.38;;;28.33;;
13421;SDS011;6782;55.904;13.396;2023-09-08T02:24:07;78.40;;;28.02;;
13421;SDS011;6782;55.904;13.396;2023-09-08T02:26:56;72.30;;;26.77;;
13421;SDS011;6782;55.904;13.396;2023-09-08T02:29:44;61.90;;;25.07;;
13421;SDS011;6782;55.904;13.396;2023-09-08T02:32:31;63.53;;;24.73;;
13421;SDS011;6782;55.904;13.396;2023-09-08T02:35:20;52.92;;;23.95;;
13421;SDS011;6782;55.904;13.396;2023-09-08T02:38:08;40.55;;;20.80;;
13421;SDS011;6782;55.904;13.396;2023-09-08T02:40:55;76.80;;;23.35;;
13421;SDS011;6782;55.904;13.396;2023-09-08T02:43:42;78.85;;;24.33;;
13421;SDS011;6782;55.904;13.396;2023-09-08T02:46:30;94.35;;;21.70;;
13421;SDS011;6782;55.904;13.396;2023-09-08T02:49:17;95.47;;;23.58;;
13421;SDS011;6782;55.904;13.396;2023-09-08T02:52:06;64.90;;;21.02;;
13421;SDS011;6782;55.904;13.396;2023-09-08T02:54:54;64.40;;;21.95;;
13421;SDS011;6782;55.904;13.396;2023-09-08T02:57:41;69.75;;;24.05;;
13421;SDS011;6782;55.904;13.396;2023-09-08T03:00:29;65.85;;;24.25;;
13421;SDS011;6782;55.904;13.396;2023-09-08T03:03:16;54.90;;;23.35;;
13421;SDS011;6782;55.904;13.396;2023-09-08T03:06:04;41.08;;;21.63;;
13421;SDS011;6782;55.904;13.396;2023-09-08T03:08:54;46.92;;;21.67;;
13421;SDS011;6782;55.904;13.396;2023-09-08T03:11:41;53.45;;;22.77;;
13421;SDS011;6782;55.904;13.396;2023-09-08T03:14:29;59.67;;;24.85;;
13421;SDS011;6782;55.904;13.396;2023-09-08T03:17:16;43.03;;;21.52;;
13421;SDS011;6782;55.904;13.396;2023-09-08T03:20:05;57.03;;;22.48;;
13421;SDS011;6782;55.904;13.396;2023-09-08T03:22:54;60.63;;;22.90;;
13421;SDS011;6782;55.904;13.396;2023-09-08T03:25:44;45.45;;;20.50;;
13421;SDS011;6782;55.904;13.396;2023-09-08T03:28:31;36.70;;;19.55;;
13421;SDS011;6782;55.904;13.396;2023-09-08T03:31:19;49.00;;;18.92;;
13421;SDS011;6782;55.904;13.396;2023-09-08T03:34:06;48.95;;;18.85;;
13421;SDS011;6782;55.904;13.396;2023-09-08T03:36:54;111.55;;;23.65;;
13421;SDS011;6782;55.904;13.396;2023-09-08T03:39:41;67.70;;;20.70;;
13421;SDS011;6782;55.904;13.396;2023-09-08T03:42:30;73.93;;;22.02;;
13421;SDS011;6782;55.904;13.396;2023-09-08T03:45:18;81.07;;;21.52;;
13421;SDS011;6782;55.904;13.396;2023-09-08T03:48:05;65.78;;;20.73;;
13421;SDS011;6782;55.904;13.396;2023-09-08T03:50:53;62.67;;;20.42;;
13421;SDS011;6782;55.904;13.396;2023-09-08T03:53:41;71.25;;;20.88;;
13421;SDS011;6782;55.904;13.396;2023-09-08T03:56:28;74.50;;;21.33;;
13421;SDS011;6782;55.904;13.396;2023-09-08T03:59:17;115.53;;;27.33;;
13421;SDS011;6782;55.904;13.396;2023-09-08T04:02:04;110.97;;;29.10;;
13421;SDS011;6782;55.904;13.396;2023-09-08T04:04:51;62.13;;;21.75;;
13421;SDS011;6782;55.904;13.396;2023-09-08T04:07:38;68.18;;;24.80;;
13421;SDS011;6782;55.904;13.396;2023-09-08T04:10:26;94.38;;;26.60;;
13421;SDS011;6782;55.904;13.396;2023-09-08T04:13:13;69.35;;;25.30;;
13421;SDS011;6782;55.904;13.396;2023-09-08T04:16:02;71.38;;;26.00;;
13421;SDS011;6782;55.904;13.396;2023-09-08T04:18:50;55.58;;;25.67;;
13421;SDS011;6782;55.904;13.396;2023-09-08T04:21:37;86.43;;;27.92;;
13421;SDS011;6782;55.904;13.396;2023-09-08T04:24:24;58.05;;;26.05;;
13421;SDS011;6782;55.904;13.396;2023-09-08T04:27:11;103.13;;;28.33;;
13421;SDS011;6782;55.904;13.396;2023-09-08T04:29:59;88.07;;;29.90;;
13421;SDS011;6782;55.904;13.396;2023-09-08T04:32:47;77.18;;;27.13;;
13421;SDS011;6782;55.904;13.396;2023-09-08T04:35:35;56.05;;;23.75;;
13421;SDS011;6782;55.904;13.396;2023-09-08T04:38:22;56.13;;;22.98;;
13421;SDS011;6782;55.904;13.396;2023-09-08T04:41:09;76.00;;;26.33;;
13421;SDS011;6782;55.904;13.396;2023-09-08T04:43:57;82.30;;;24.45;;
13421;SDS011;6782;55.904;13.396;2023-09-08T04:46:45;81.95;;;24.33;;
13421;SDS011;6782;55.904;13.396;2023-09-08T04:49:36;75.75;;;23.95;;
13421;SDS011;6782;55.904;13.396;2023-09-08T04:52:23;73.93;;;24.00;;
13421;SDS011;6782;55.904;13.396;2023-09-08T04:55:11;95.28;;;26.02;;
13421;SDS011;6782;55.904;13.396;2023-09-08T04:57:58;104.05;;;28.30;;
13421;SDS011;6782;55.904;13.396;2023-09-08T05:00:46;105.22;;;29.00;;
13421;SDS011;6782;55.904;13.396;2023-09-08T05:03:33;95.63;;;25.75;;
13421;SDS011;6782;55.904;13.396;2023-09-08T05:06:22;77.20;;;24.35;;
13421;SDS011;6782;55.904;13.396;2023-09-08T05:09:10;67.30;;;24.50;;
13421;SDS011;6782;55.904;13.396;2023-09-08T05:11:57;66.55;;;23.13;;
13421;SDS011;6782;55.904;13.396;2023-09-08T05:14:45;73.80;;;24.30;;
13421;SDS011;6782;55.904;13.396;2023-09-08T05:17:33;57.63;;;24.77;;
13421;SDS011;6782;55.904;13.396;2023-09-08T05:20:20;54.55;;;25.13;;
13421;SDS011;6782;55.904;13.396;2023-09-08T05:23:09;62.22;;;24.13;;
13421;SDS011;6782;55.904;13.396;2023-09-08T05:25:56;69.60;;;24.27;;
13421;SDS011;6782;55.904;13.396;2023-09-08T05:28:44;85.90;;;27.73;;
13421;SDS011;6782;55.904;13.396;2023-09-08T05:31:31;79.72;;;28.73;;
13421;SDS011;6782;55.904;13.396;2023-09-08T05:34:18;73.65;;;25.00;;
13421;SDS011;6782;55.904;13.396;2023-09-08T05:37:05;70.28;;;26.52;;
13421;SDS011;6782;55.904;13.396;2023-09-08T05:39:54;64.25;;;24.63;;
13421;SDS011;6782;55.904;13.396;2023-09-08T05:42:41;135.52;;;28.55;;
13421;SDS011;6782;55.904;13.396;2023-09-08T05:45:28;110.15;;;28.63;;
13421;SDS011;6782;55.904;13.396;2023-09-08T05:48:17;55.78;;;26.77;;
13421;SDS011;6782;55.904;13.396;2023-09-08T05:51:04;81.82;;;27.30;;
13421;SDS011;6782;55.904;13.396;2023-09-08T05:53:52;132.35;;;31.17;;
13421;SDS011;6782;55.904;13.396;2023-09-08T05:56:40;73.18;;;26.88;;
13421;SDS011;6782;55.904;13.396;2023-09-08T05:59:28;51.58;;;25.77;;
13421;SDS011;6782;55.904;13.396;2023-09-08T06:02:15;45.17;;;26.58;;
13421;SDS011;6782;55.904;13.396;2023-09-08T06:05:02;46.65;;;27.45;;
13421;SDS011;6782;55.904;13.396;2023-09-08T06:07:49;35.90;;;26.15;;
13421;SDS011;6782;55.904;13.396;2023-09-08T06:10:37;42.38;;;27.25;;
13421;SDS011;6782;55.904;13.396;2023-09-08T06:13:26;71.55;;;28.08;;
13421;SDS011;6782;55.904;13.396;2023-09-08T06:16:13;43.80;;;26.77;;
13421;SDS011;6782;55.904;13.396;2023-09-08T06:19:01;91.70;;;27.05;;
13421;SDS011;6782;55.904;13.396;2023-09-08T06:21:49;33.30;;;24.17;;
13421;SDS011;6782;55.904;13.396;2023-09-08T06:24:36;30.40;;;25.25;;
13421;SDS011;6782;55.904;13.396;2023-09-08T06:27:23;33.28;;;25.15;;
13421;SDS011;6782;55.904;13.396;2023-09-08T06:30:12;26.83;;;22.60;;
13421;SDS011;6782;55.904;13.396;2023-09-08T06:33:01;36.72;;;23.48;;
13421;SDS011;6782;55.904;13.396;2023-09-08T06:35:49;54.47;;;25.10;;
13421;SDS011;6782;55.904;13.396;2023-09-08T06:38:36;52.45;;;24.42;;
13421;SDS011;6782;55.904;13.396;2023-09-08T06:41:23;29.30;;;23.45;;
13421;SDS011;6782;55.904;13.396;2023-09-08T06:44:12;44.05;;;23.38;;
13421;SDS011;6782;55.904;13.396;2023-09-08T06:47:01;28.30;;;22.98;;
13421;SDS011;6782;55.904;13.396;2023-09-08T06:49:52;21.67;;;19.55;;
13421;SDS011;6782;55.904;13.396;2023-09-08T06:52:39;22.13;;;20.02;;
13421;SDS011;6782;55.904;13.396;2023-09-08T06:55:26;24.00;;;21.67;;
13421;SDS011;6782;55.904;13.396;2023-09-08T06:58:14;24.33;;;21.80;;
13421;SDS011;6782;55.904;13.396;2023-09-08T07:01:01;24.10;;;21.65;;
13421;SDS011;6782;55.904;13.396;2023-09-08T07:03:50;26.63;;;23.75;;
13421;SDS011;6782;55.904;13.396;2023-09-08T07:06:37;25.05;;;22.45;;
13421;SDS011;6782;55.904;13.396;2023-09-08T07:09:27;23.90;;;21.63;;
13421;SDS011;6782;55.904;13.396;2023-09-08T07:12:14;24.15;;;21.98;;
13421;SDS011;6782;55.904;13.396;2023-09-08T07:15:01;23.40;;;21.20;;
13421;SDS011;6782;55.904;13.396;2023-09-08T07:17:49;22.27;;;20.23;;
13421;SDS011;6782;55.904;13.396;2023-09-08T07:20:37;21.17;;;19.27;;
13421;SDS011;6782;55.904;13.396;2023-09-08T07:23:25;20.30;;;18.55;;
13421;SDS011;6782;55.904;13.396;2023-09-08T07:26:12;18.95;;;17.25;;
13421;SDS011;6782;55.904;13.396;2023-09-08T07:28:59;15.90;;;14.60;;
13421;SDS011;6782;55.904;13.396;2023-09-08T07:31:46;16.98;;;15.48;;
13421;SDS011;6782;55.904;13.396;2023-09-08T07:34:33;16.17;;;14.88;;
13421;SDS011;6782;55.904;13.396;2023-09-08T07:37:22;15.48;;;14.18;;
13421;SDS011;6782;55.904;13.396;2023-09-08T07:40:11;15.00;;;13.88;;
13421;SDS011;6782;55.904;13.396;2023-09-08T07:42:58;14.68;;;13.57;;
13421;SDS011;6782;55.904;13.396;2023-09-08T07:45:45;15.18;;;14.02;;
13421;SDS011;6782;55.904;13.396;2023-09-08T07:48:32;12.82;;;11.82;;
13421;SDS011;6782;55.904;13.396;2023-09-08T07:51:19;13.30;;;12.30;;
13421;SDS011;6782;55.904;13.396;2023-09-08T07:54:08;10.73;;;9.82;;
13421;SDS011;6782;55.904;13.396;2023-09-08T07:56:55;10.77;;;9.98;;
13421;SDS011;6782;55.904;13.396;2023-09-08T07:59:43;9.65;;;8.73;;
13421;SDS011;6782;55.904;13.396;2023-09-08T08:02:30;9.10;;;8.50;;
13421;SDS011;6782;55.904;13.396;2023-09-08T08:05:17;7.97;;;7.47;;
13421;SDS011;6782;55.904;13.396;2023-09-08T08:08:04;7.32;;;6.82;;
13421;SDS011;6782;55.904;13.396;2023-09-08T08:10:53;6.93;;;6.43;;
13421;SDS011;6782;55.904;13.396;2023-09-08T08:13:41;6.80;;;6.35;;
13421;SDS011;6782;55.904;13.396;2023-09-08T08:16:28;6.85;;;6.35;;
13421;SDS011;6782;55.904;13.396;2023-09-08T08:19:15;5.60;;;5.20;;
13421;SDS011;6782;55.904;13.396;2023-09-08T08:22:02;6.13;;;5.72;;
13421;SDS011;6782;55.904;13.396;2023-09-08T08:24:50;5.90;;;5.40;;
13421;SDS011;6782;55.904;13.396;2023-09-08T08:27:38;6.57;;;6.15;;
13421;SDS011;6782;55.904;13.396;2023-09-08T08:30:26;6.63;;;5.80;;
13421;SDS011;6782;55.904;13.396;2023-09-08T08:33:14;5.70;;;5.30;;
13421;SDS011;6782;55.904;13.396;2023-09-08T08:36:01;5.75;;;5.35;;
13421;SDS011;6782;55.904;13.396;2023-09-08T08:38:49;6.20;;;5.80;;
13421;SDS011;6782;55.904;13.396;2023-09-08T08:41:36;5.93;;;5.43;;
13421;SDS011;6782;55.904;13.396;2023-09-08T08:44:26;6.13;;;5.72;;
13421;SDS011;6782;55.904;13.396;2023-09-08T08:47:14;5.60;;;5.20;;
13421;SDS011;6782;55.904;13.396;2023-09-08T08:50:02;5.32;;;4.93;;
13421;SDS011;6782;55.904;13.396;2023-09-08T08:52:50;5.45;;;5.05;;
13421;SDS011;6782;55.904;13.396;2023-09-08T08:55:38;5.70;;;5.20;;
13421;SDS011;6782;55.904;13.396;2023-09-08T08:58:25;5.43;;;5.03;;
13421;SDS011;6782;55.904;13.396;2023-09-08T09:01:16;5.53;;;5.05;;
13421;SDS011;6782;55.904;13.396;2023-09-08T09:04:05;5.85;;;5.45;;
13421;SDS011;6782;55.904;13.396;2023-09-08T09:06:52;5.25;;;4.95;;
13421;SDS011;6782;55.904;13.396;2023-09-08T09:09:40;6.25;;;5.75;;
13421;SDS011;6782;55.904;13.396;2023-09-08T09:12:27;6.28;;;5.72;;
13421;SDS011;6782;55.904;13.396;2023-09-08T09:15:14;6.00;;;5.50;;
13421;SDS011;6782;55.904;13.396;2023-09-08T09:18:05;5.60;;;5.20;;
13421;SDS011;6782;55.904;13.396;2023-09-08T09:20:54;5.85;;;5.45;;
13421;SDS011;6782;55.904;13.396;2023-09-08T09:23:41;6.85;;;6.25;;
13421;SDS011;6782;55.904;13.396;2023-09-08T09:26:29;5.72;;;5.22;;
13421;SDS011;6782;55.904;13.396;2023-09-08T09:29:16;6.13;;;5.68;;
13421;SDS011;6782;55.904;13.396;2023-09-08T09:32:04;6.70;;;6.13;;
13421;SDS011;6782;55.904;13.396;2023-09-08T09:34:56;6.82;;;6.32;;
13421;SDS011;6782;55.904;13.396;2023-09-08T09:37:46;6.28;;;5.88;;
13421;SDS011;6782;55.904;13.396;2023-09-08T09:40:34;6.90;;;6.05;;
13421;SDS011;6782;55.904;13.396;2023-09-08T09:43:22;6.53;;;5.95;;
13421;SDS011;6782;55.904;13.396;2023-09-08T09:46:09;6.38;;;5.78;;
13421;SDS011;6782;55.904;13.396;2023-09-08T09:48:56;6.15;;;5.65;;
13421;SDS011;6782;55.904;13.396;2023-09-08T09:51:45;5.95;;;5.45;;
13421;SDS011;6782;55.904;13.396;2023-09-08T09:54:33;5.65;;;5.25;;
13421;SDS011;6782;55.904;13.396;2023-09-08T09:57:21;6.55;;;6.05;;
13421;SDS011;6782;55.904;13.396;2023-09-08T10:00:09;6.25;;;5.75;;
13421;SDS011;6782;55.904;13.396;2023-09-08T10:02:57;6.10;;;5.60;;
13421;SDS011;6782;55.904;13.396;2023-09-08T10:05:45;6.28;;;5.78;;
13421;SDS011;6782;55.904;13.396;2023-09-08T10:08:36;7.10;;;6.43;;
13421;SDS011;6782;55.904;13.396;2023-09-08T10:11:23;6.55;;;6.07;;
13421;SDS011;6782;55.904;13.396;2023-09-08T10:14:15;6.72;;;6.03;;
13421;SDS011;6782;55.904;13.396;2023-09-08T10:17:04;6.57;;;5.90;;
13421;SDS011;6782;55.904;13.396;2023-09-08T10:19:54;7.32;;;6.63;;
13421;SDS011;6782;55.904;13.396;2023-09-08T10:22:46;7.00;;;6.47;;
13421;SDS011;6782;55.904;13.396;2023-09-08T10:25:39;6.57;;;6.07;;
13421;SDS011;6782;55.904;13.396;2023-09-08T10:28:30;6.70;;;6.10;;
13421;SDS011;6782;55.904;13.396;2023-09-08T10:31:19;6.35;;;5.75;;
13421;SDS011;6782;55.904;13.396;2023-09-08T10:34:06;6.93;;;6.32;;
13421;SDS011;6782;55.904;13.396;2023-09-08T10:36:54;6.47;;;5.95;;
13421;SDS011;6782;55.904;13.396;2023-09-08T10:39:41;6.07;;;5.57;;
13421;SDS011;6782;55.904;13.396;2023-09-08T10:42:29;5.80;;;5.40;;
13421;SDS011;6782;55.904;13.396;2023-09-08T10:45:17;6.07;;;5.55;;
13421;SDS011;6782;55.904;13.396;2023-09-08T10:48:06;6.30;;;5.70;;
13421;SDS011;6782;55.904;13.396;2023-09-08T10:50:53;6.25;;;5.75;;
13421;SDS011;6782;55.904;13.396;2023-09-08T10:53:40;8.75;;;5.78;;
13421;SDS011;6782;55.904;13.396;2023-09-08T10:56:29;5.97;;;5.50;;
13421;SDS011;6782;55.904;13.396;2023-09-08T10:59:36;6.40;;;5.90;;
13421;SDS011;6782;55.904;13.396;2023-09-08T11:02:34;6.65;;;6.05;;
13421;SDS011;6782;55.904;13.396;2023-09-08T11:05:23;7.10;;;5.72;;
13421;SDS011;6782;55.904;13.396;2023-09-08T11:08:10;6.25;;;5.70;;
13421;SDS011;6782;55.904;13.396;2023-09-08T11:10:57;6.10;;;5.32;;
13421;SDS011;6782;55.904;13.396;2023-09-08T11:13:44;9.95;;;6.03;;
13421;SDS011;6782;55.904;13.396;2023-09-08T11:16:33;5.55;;;5.10;;
13421;SDS011;6782;55.904;13.396;2023-09-08T11:19:20;6.45;;;5.85;;
13421;SDS011;6782;55.904;13.396;2023-09-08T11:22:07;6.60;;;5.20;;
13421;SDS011;6782;55.904;13.396;2023-09-08T11:24:55;6.20;;;5.63;;
13421;SDS011;6782;55.904;13.396;2023-09-08T11:27:43;6.93;;;6.22;;
13421;SDS011;6782;55.904;13.396;2023-09-08T11:30:32;5.75;;;5.32;;
13421;SDS011;6782;55.904;13.396;2023-09-08T11:33:22;7.75;;;5.68;;
13421;SDS011;6782;55.904;13.396;2023-09-08T11:36:14;5.90;;;5.35;;
13421;SDS011;6782;55.904;13.396;2023-09-08T11:39:03;5.85;;;5.25;;
13421;SDS011;6782;55.904;13.396;2023-09-08T11:41:51;5.88;;;5.32;;
13421;SDS011;6782;55.904;13.396;2023-09-08T11:44:39;5.57;;;5.03;;
13421;SDS011;6782;55.904;13.396;2023-09-08T11:47:27;6.90;;;5.65;;
13421;SDS011;6782;55.904;13.396;2023-09-08T11:50:16;6.95;;;5.22;;
13421;SDS011;6782;55.904;13.396;2023-09-08T11:53:05;5.88;;;5.47;;
13421;SDS011;6782;55.904;13.396;2023-09-08T11:55:53;5.82;;;5.22;;
13421;SDS011;6782;55.904;13.396;2023-09-08T11:58:40;6.10;;;5.53;;
13421;SDS011;6782;55.904;13.396;2023-09-08T12:01:28;5.93;;;5.43;;
13421;SDS011;6782;55.904;13.396;2023-09-08T12:04:19;6.30;;;5.70;;
13421;SDS011;6782;55.904;13.396;2023-09-08T12:07:11;6.68;;;5.40;;
13421;SDS011;6782;55.904;13.396;2023-09-08T12:10:06;6.47;;;5.40;;
13421;SDS011;6782;55.904;13.396;2023-09-08T12:12:54;6.07;;;5.47;;
13421;SDS011;6782;55.904;13.396;2023-09-08T12:15:45;6.38;;;5.78;;
13421;SDS011;6782;55.904;13.396;2023-09-08T12:18:38;6.40;;;5.28;;
13421;SDS011;6782;55.904;13.396;2023-09-08T12:21:26;7.07;;;5.70;;
13421;SDS011;6782;55.904;13.396;2023-09-08T12:24:15;6.43;;;5.20;;
13421;SDS011;6782;55.904;13.396;2023-09-08T12:27:03;7.03;;;6.25;;
13421;SDS011;6782;55.904;13.396;2023-09-08T12:29:56;6.53;;;5.18;;
13421;SDS011;6782;55.904;13.396;2023-09-08T12:32:46;5.88;;;5.38;;
13421;SDS011;6782;55.904;13.396;2023-09-08T12:35:35;5.93;;;5.32;;
13421;SDS011;6782;55.904;13.396;2023-09-08T12:38:22;6.47;;;5.88;;
13421;SDS011;6782;55.904;13.396;2023-09-08T12:41:11;5.72;;;5.20;;
13421;SDS011;6782;55.904;13.396;2023-09-08T12:43:58;6.80;;;6.00;;
13421;SDS011;6782;55.904;13.396;2023-09-08T12:46:46;7.60;;;5.65;;
13421;SDS011;6782;55.904;13.396;2023-09-08T12:49:33;6.22;;;5.43;;
13421;SDS011;6782;55.904;13.396;2023-09-08T12:52:20;6.38;;;5.35;;
13421;SDS011;6782;55.904;13.396;2023-09-08T12:55:07;7.65;;;5.55;;
13421;SDS011;6782;55.904;13.396;2023-09-08T12:57:56;6.45;;;5.85;;
13421;SDS011;6782;55.904;13.396;2023-09-08T13:00:43;6.07;;;5.53;;
13421;SDS011;6782;55.904;13.396;2023-09-08T13:03:31;5.75;;;5.35;;
13421;SDS011;6782;55.904;13.396;2023-09-08T13:06:18;8.45;;;5.45;;
13421;SDS011;6782;55.904;13.396;2023-09-08T13:09:05;6.13;;;5.63;;
13421;SDS011;6782;55.904;13.396;2023-09-08T13:11:52;5.75;;;5.25;;
13421;SDS011;6782;55.904;13.396;2023-09-08T13:14:41;6.35;;;5.75;;
13421;SDS011;6782;55.904;13.396;2023-09-08T13:17:29;5.75;;;5.25;;
13421;SDS011;6782;55.904;13.396;2023-09-08T13:20:17;6.15;;;5.55;;
13421;SDS011;6782;55.904;13.396;2023-09-08T13:23:05;6.88;;;5.47;;
13421;SDS011;6782;55.904;13.396;2023-09-08T13:25:53;6.50;;;5.90;;
13421;SDS011;6782;55.904;13.396;2023-09-08T13:28:41;7.07;;;5.32;;
13421;SDS011;6782;55.904;13.396;2023-09-08T13:31:30;6.25;;;4.90;;
13421;SDS011;6782;55.904;13.396;2023-09-08T13:34:17;6.00;;;5.10;;
13421;SDS011;6782;55.904;13.396;2023-09-08T13:37:05;6.55;;;5.78;;
13421;SDS011;6782;55.904;13.396;2023-09-08T13:39:52;5.10;;;4.70;;
13421;SDS011;6782;55.904;13.396;2023-09-08T13:42:39;7.07;;;5.50;;
13421;SDS011;6782;55.904;13.396;2023-09-08T13:45:26;7.13;;;5.07;;
13421;SDS011;6782;55.904;13.396;2023-09-08T13:48:16;6.50;;;5.40;;
13421;SDS011;6782;55.904;13.396;2023-09-08T13:51:03;6.30;;;4.90;;
13421;SDS011;6782;55.904;13.396;2023-09-08T13:53:50;5.60;;;5.03;;
13421;SDS011;6782;55.904;13.396;2023-09-08T13:56:37;5.82;;;5.25;;
13421;SDS011;6782;55.904;13.396;2023-09-08T13:59:26;5.90;;;5.22;;
13421;SDS011;6782;55.904;13.396;2023-09-08T14:02:14;5.95;;;5.45;;
13421;SDS011;6782;55.904;13.396;2023-09-08T14:05:03;6.93;;;5.13;;
13421;SDS011;6782;55.904;13.396;2023-09-08T14:07:50;6.65;;;5.20;;
13421;SDS011;6782;55.904;13.396;2023-09-08T14:10:38;5.22;;;4.72;;
13421;SDS011;6782;55.904;13.396;2023-09-08T14:13:26;6.47;;;5.18;;
13421;SDS011;6782;55.904;13.396;2023-09-08T14:16:14;5.20;;;4.70;;
13421;SDS011;6782;55.904;13.396;2023-09-08T14:19:02;6.25;;;5.75;;
13421;SDS011;6782;55.904;13.396;2023-09-08T14:21:52;5.53;;;5.05;;
13421;SDS011;6782;55.904;13.396;2023-09-08T14:24:40;5.63;;;4.80;;
13421;SDS011;6782;55.904;13.396;2023-09-08T14:27:27;5.38;;;4.70;;
13421;SDS011;6782;55.904;13.396;2023-09-08T14:30:14;5.88;;;5.28;;
13421;SDS011;6782;55.904;13.396;2023-09-08T14:33:01;5.20;;;4.72;;
13421;SDS011;6782;55.904;13.396;2023-09-08T14:35:50;6.30;;;5.35;;
13421;SDS011;6782;55.904;13.396;2023-09-08T14:38:41;5.20;;;4.80;;
13421;SDS011;6782;55.904;13.396;2023-09-08T14:41:28;6.45;;;5.18;;
13421;SDS011;6782;55.904;13.396;2023-09-08T14:44:15;5.30;;;4.90;;
13421;SDS011;6782;55.904;13.396;2023-09-08T14:47:04;5.20;;;4.70;;
13421;SDS011;6782;55.904;13.396;2023-09-08T14:49:54;7.43;;;5.30;;
13421;SDS011;6782;55.904;13.396;2023-09-08T14:52:43;7.32;;;4.95;;
13421;SDS011;6782;55.904;13.396;2023-09-08T14:59:11;5.45;;;5.05;;
13421;SDS011;6782;55.904;13.396;2023-09-08T15:01:59;5.63;;;5.20;;
13421;SDS011;6782;55.904;13.396;2023-09-08T15:04:47;5.63;;;5.13;;
13421;SDS011;6782;55.904;13.396;2023-09-08T15:07:34;6.15;;;4.95;;
13421;SDS011;6782;55.904;13.396;2023-09-08T15:10:22;5.80;;;5.30;;
13421;SDS011;6782;55.904;13.396;2023-09-08T15:13:11;8.25;;;5.57;;
13421;SDS011;6782;55.904;13.396;2023-09-08T15:15:58;6.38;;;5.43;;
13421;SDS011;6782;55.904;13.396;2023-09-08T15:18:46;22.48;;;10.38;;
13421;SDS011;6782;55.904;13.396;2023-09-08T15:21:34;6.50;;;5.22;;
13421;SDS011;6782;55.904;13.396;2023-09-08T15:24:21;9.80;;;5.00;;
13421;SDS011;6782;55.904;13.396;2023-09-08T15:27:09;6.47;;;5.50;;
13421;SDS011;6782;55.904;13.396;2023-09-08T15:29:58;6.00;;;5.35;;
13421;SDS011;6782;55.904;13.396;2023-09-08T15:32:45;9.55;;;6.00;;
13421;SDS011;6782;55.904;13.396;2023-09-08T15:35:33;6.60;;;5.88;;
13421;SDS011;6782;55.904;13.396;2023-09-08T15:38:21;6.53;;;5.82;;
13421;SDS011;6782;55.904;13.396;2023-09-08T15:41:18;6.25;;;5.65;;
13421;SDS011;6782;55.904;13.396;2023-09-08T15:44:05;5.95;;;5.35;;
13421;SDS011;6782;55.904;13.396;2023-09-08T15:46:54;6.20;;;5.60;;
13421;SDS011;6782;55.904;13.396;2023-09-08T15:49:41;6.40;;;5.78;;
13421;SDS011;6782;55.904;13.396;2023-09-08T15:52:28;7.97;;;6.35;;
13421;SDS011;6782;55.904;13.396;2023-09-08T15:55:16;6.93;;;5.70;;
13421;SDS011;6782;55.904;13.396;2023-09-08T15:58:03;6.82;;;5.80;;
13421;SDS011;6782;55.904;13.396;2023-09-08T16:00:50;7.68;;;5.93;;
13421;SDS011;6782;55.904;13.396;2023-09-08T16:03:39;6.20;;;5.68;;
13421;SDS011;6782;55.904;13.396;2023-09-08T16:06:26;6.50;;;5.88;;
13421;SDS011;6782;55.904;13.396;2023-09-08T16:09:13;15.23;;;6.65;;
13421;SDS011;6782;55.904;13.396;2023-09-08T16:12:04;8.15;;;6.10;;
13421;SDS011;6782;55.904;13.396;2023-09-08T16:14:51;6.60;;;5.97;;
13421;SDS011;6782;55.904;13.396;2023-09-08T16:17:38;12.18;;;6.43;;
13421;SDS011;6782;55.904;13.396;2023-09-08T16:20:27;6.68;;;6.00;;
13421;SDS011;6782;55.904;13.396;2023-09-08T16:23:14;6.32;;;5.82;;
13421;SDS011;6782;55.904;13.396;2023-09-08T16:26:01;8.45;;;7.40;;
13421;SDS011;6782;55.904;13.396;2023-09-08T16:28:48;7.47;;;6.07;;
13421;SDS011;6782;55.904;13.396;2023-09-08T16:31:36;6.72;;;6.13;;
13421;SDS011;6782;55.904;13.396;2023-09-08T16:34:23;9.75;;;7.82;;
13421;SDS011;6782;55.904;13.396;2023-09-08T16:37:12;7.07;;;5.95;;
13421;SDS011;6782;55.904;13.396;2023-09-08T16:39:59;7.10;;;6.28;;